sensor_id;sensor_type;location;lat;lon;timestamp;pressure;altitude;pressure_sealevel;temperature;humidity
5952;BME280;3001;42.622;23.194;2023-08-17T00:01:34;91477.63;;;21.65;100.00
5952;BME280;3001;42.622;23.194;2023-08-17T00:04:00;91477.63;;;21.65;100.00
5952;BME280;3001;42.622;23.194;2023-08-17T00:06:27;91486.75;;;21.74;100.00
5952;BME280;3001;42.622;23.194;2023-08-17T00:08:54;91479.59;;;21.75;99.95
5952;BME280;3001;42.622;23.194;2023-08-17T00:11:20;91480.53;;;21.56;100.00
5952;BME280;3001;42.622;23.194;2023-08-17T00:13:48;91480.72;;;21.41;100.00
5952;BME280;3001;42.622;23.194;2023-08-17T00:16:15;91479.06;;;21.29;100.00
5952;BME280;3001;42.622;23.194;2023-08-17T00:18:42;91478.88;;;21.45;100.00
5952;BME280;3001;42.622;23.194;2023-08-17T00:21:09;91481.94;;;21.47;100.00
5952;BME280;3001;42.622;23.194;2023-08-17T00:23:35;91479.47;;;21.31;100.00
5952;BME280;3001;42.622;23.194;2023-08-17T00:26:02;91480.84;;;21.22;100.00
5952;BME280;3001;42.622;23.194;2023-08-17T00:28:29;91480.06;;;21.18;100.00
5952;BME280;3001;42.622;23.194;2023-08-17T00:30:57;91483.94;;;21.24;100.00
5952;BME280;3001;42.622;23.194;2023-08-17T00:33:23;91481.56;;;21.15;100.00
5952;BME280;3001;42.622;23.194;2023-08-17T00:35:50;91480.38;;;21.13;100.00
5952;BME280;3001;42.622;23.194;2023-08-17T00:38:17;91482.63;;;21.44;100.00
5952;BME280;3001;42.622;23.194;2023-08-17T00:40:43;91480.53;;;21.60;100.00
5952;BME280;3001;42.622;23.194;2023-08-17T00:43:10;91474.19;;;21.64;100.00
5952;BME280;3001;42.622;23.194;2023-08-17T00:45:37;91476.44;;;21.62;99.28
5952;BME280;3001;42.622;23.194;2023-08-17T00:48:06;91478.19;;;21.51;99.82
5952;BME280;3001;42.622;23.194;2023-08-17T00:50:35;91477.44;;;21.51;99.76
5952;BME280;3001;42.622;23.194;2023-08-17T00:53:03;91477.00;;;21.78;98.77
5952;BME280;3001;42.622;23.194;2023-08-17T00:55:30;91479.78;;;21.59;99.15
5952;BME280;3001;42.622;23.194;2023-08-17T00:57:57;91478.44;;;21.39;100.00
5952;BME280;3001;42.622;23.194;2023-08-17T01:00:25;91469.00;;;21.38;100.00
5952;BME280;3001;42.622;23.194;2023-08-17T01:02:53;91470.06;;;21.34;100.00
5952;BME280;3001;42.622;23.194;2023-08-17T01:05:21;91476.00;;;21.24;100.00
5952;BME280;3001;42.622;23.194;2023-08-17T01:07:48;91473.22;;;21.13;100.00
5952;BME280;3001;42.622;23.194;2023-08-17T01:10:15;91476.16;;;21.08;100.00
5952;BME280;3001;42.622;23.194;2023-08-17T01:12:47;91470.09;;;21.05;100.00
5952;BME280;3001;42.622;23.194;2023-08-17T01:15:18;91467.69;;;21.25;100.00
5952;BME280;3001;42.622;23.194;2023-08-17T01:17:52;91467.38;;;21.30;100.00
5952;BME280;3001;42.622;23.194;2023-08-17T01:20:23;91467.38;;;21.30;100.00
5952;BME280;3001;42.622;23.194;2023-08-17T01:22:51;91456.91;;;21.37;99.52
5952;BME280;3001;42.622;23.194;2023-08-17T01:25:23;91464.94;;;21.48;99.11
5952;BME280;3001;42.622;23.194;2023-08-17T01:27:50;91462.53;;;21.36;99.09
5952;BME280;3001;42.622;23.194;2023-08-17T01:30:18;91463.59;;;21.28;99.88
5952;BME280;3001;42.622;23.194;2023-08-17T01:32:50;91460.66;;;20.78;100.00
5952;BME280;3001;42.622;23.194;2023-08-17T01:35:27;91454.50;;;20.96;100.00
5952;BME280;3001;42.622;23.194;2023-08-17T01:37:58;91459.88;;;20.77;100.00
5952;BME280;3001;42.622;23.194;2023-08-17T01:40:29;91456.38;;;20.66;100.00
5952;BME280;3001;42.622;23.194;2023-08-17T01:42:57;91454.16;;;20.72;100.00
5952;BME280;3001;42.622;23.194;2023-08-17T01:45:24;91458.88;;;20.59;100.00
5952;BME280;3001;42.622;23.194;2023-08-17T01:47:51;91451.03;;;20.63;100.00
5952;BME280;3001;42.622;23.194;2023-08-17T01:50:18;91459.09;;;20.47;100.00
5952;BME280;3001;42.622;23.194;2023-08-17T01:52:44;91456.50;;;20.77;100.00
5952;BME280;3001;42.622;23.194;2023-08-17T01:55:11;91458.13;;;20.59;100.00
5952;BME280;3001;42.622;23.194;2023-08-17T01:57:39;91456.38;;;20.66;100.00
5952;BME280;3001;42.622;23.194;2023-08-17T02:00:07;91454.81;;;20.39;100.00
5952;BME280;3001;42.622;23.194;2023-08-17T02:02:36;91445.22;;;20.28;100.00
5952;BME280;3001;42.622;23.194;2023-08-17T02:05:03;91447.94;;;20.31;100.00
5952;BME280;3001;42.622;23.194;2023-08-17T02:07:30;91442.66;;;20.31;100.00
5952;BME280;3001;42.622;23.194;2023-08-17T02:09:56;91447.66;;;20.66;100.00
5952;BME280;3001;42.622;23.194;2023-08-17T02:12:23;91451.44;;;20.39;100.00
5952;BME280;3001;42.622;23.194;2023-08-17T02:14:51;91449.38;;;20.81;100.00
5952;BME280;3001;42.622;23.194;2023-08-17T02:17:18;91447.38;;;21.00;98.61
5952;BME280;3001;42.622;23.194;2023-08-17T02:19:47;91441.44;;;21.07;97.93
5952;BME280;3001;42.622;23.194;2023-08-17T02:22:13;91446.78;;;21.13;97.05
5952;BME280;3001;42.622;23.194;2023-08-17T02:24:40;91447.75;;;20.99;97.47
5952;BME280;3001;42.622;23.194;2023-08-17T02:27:09;91444.69;;;20.67;99.91
5952;BME280;3001;42.622;23.194;2023-08-17T02:29:36;91447.47;;;20.78;99.00
5952;BME280;3001;42.622;23.194;2023-08-17T02:32:04;91440.91;;;20.68;99.15
5952;BME280;3001;42.622;23.194;2023-08-17T02:34:31;91443.91;;;20.67;100.00
5952;BME280;3001;42.622;23.194;2023-08-17T02:36:58;91438.84;;;20.55;100.00
5952;BME280;3001;42.622;23.194;2023-08-17T02:39:25;91430.31;;;20.65;100.00
5952;BME280;3001;42.622;23.194;2023-08-17T02:41:52;91433.25;;;20.60;100.00
5952;BME280;3001;42.622;23.194;2023-08-17T02:44:20;91442.63;;;20.54;100.00
5952;BME280;3001;42.622;23.194;2023-08-17T02:46:46;91444.41;;;20.46;100.00
5952;BME280;3001;42.622;23.194;2023-08-17T02:49:14;91435.16;;;20.33;100.00
5952;BME280;3001;42.622;23.194;2023-08-17T02:51:41;91437.13;;;20.40;100.00
5952;BME280;3001;42.622;23.194;2023-08-17T02:54:08;91431.44;;;20.38;100.00
5952;BME280;3001;42.622;23.194;2023-08-17T02:56:34;91442.41;;;20.40;100.00
5952;BME280;3001;42.622;23.194;2023-08-17T02:59:01;91443.59;;;20.42;100.00
5952;BME280;3001;42.622;23.194;2023-08-17T03:01:27;91444.69;;;20.41;100.00
5952;BME280;3001;42.622;23.194;2023-08-17T03:03:55;91443.13;;;20.37;100.00
5952;BME280;3001;42.622;23.194;2023-08-17T03:06:23;91441.88;;;20.31;100.00
5952;BME280;3001;42.622;23.194;2023-08-17T03:08:50;91448.09;;;20.16;100.00
5952;BME280;3001;42.622;23.194;2023-08-17T03:11:17;91440.03;;;20.09;100.00
5952;BME280;3001;42.622;23.194;2023-08-17T03:13:45;91449.78;;;20.05;100.00
5952;BME280;3001;42.622;23.194;2023-08-17T03:16:13;91438.94;;;20.10;100.00
5952;BME280;3001;42.622;23.194;2023-08-17T03:18:40;91443.38;;;20.06;100.00
5952;BME280;3001;42.622;23.194;2023-08-17T03:21:06;91444.38;;;19.98;100.00
5952;BME280;3001;42.622;23.194;2023-08-17T03:23:34;91443.91;;;19.92;100.00
5952;BME280;3001;42.622;23.194;2023-08-17T03:26:01;91441.28;;;19.92;100.00
5952;BME280;3001;42.622;23.194;2023-08-17T03:28:28;91443.56;;;19.94;100.00
5952;BME280;3001;42.622;23.194;2023-08-17T03:30:55;91438.28;;;19.94;100.00
5952;BME280;3001;42.622;23.194;2023-08-17T03:33:21;91452.63;;;19.96;100.00
5952;BME280;3001;42.622;23.194;2023-08-17T03:35:48;91451.06;;;19.92;100.00
5952;BME280;3001;42.622;23.194;2023-08-17T03:38:15;91452.84;;;19.88;100.00
5952;BME280;3001;42.622;23.194;2023-08-17T03:40:43;91449.91;;;20.12;100.00
5952;BME280;3001;42.622;23.194;2023-08-17T03:43:09;91450.81;;;20.00;100.00
5952;BME280;3001;42.622;23.194;2023-08-17T03:45:36;91455.94;;;20.12;100.00
5952;BME280;3001;42.622;23.194;2023-08-17T03:48:03;91450.72;;;20.16;100.00
5952;BME280;3001;42.622;23.194;2023-08-17T03:50:31;91450.75;;;20.19;100.00
5952;BME280;3001;42.622;23.194;2023-08-17T03:52:58;91452.34;;;20.01;100.00
5952;BME280;3001;42.622;23.194;2023-08-17T03:55:24;91463.94;;;19.97;100.00
5952;BME280;3001;42.622;23.194;2023-08-17T03:57:52;91457.06;;;20.11;100.00
5952;BME280;3001;42.622;23.194;2023-08-17T04:00:19;91457.75;;;20.08;100.00
5952;BME280;3001;42.622;23.194;2023-08-17T04:02:46;91457.28;;;20.03;100.00
5952;BME280;3001;42.622;23.194;2023-08-17T04:05:13;91458.41;;;20.02;100.00
5952;BME280;3001;42.622;23.194;2023-08-17T04:07:39;91468.09;;;19.98;100.00
5952;BME280;3001;42.622;23.194;2023-08-17T04:10:07;91468.72;;;20.10;100.00
5952;BME280;3001;42.622;23.194;2023-08-17T04:12:34;91469.69;;;20.25;100.00
5952;BME280;3001;42.622;23.194;2023-08-17T04:15:02;91466.47;;;20.35;100.00
5952;BME280;3001;42.622;23.194;2023-08-17T04:17:29;91458.34;;;20.47;99.94
5952;BME280;3001;42.622;23.194;2023-08-17T04:19:55;91467.41;;;20.23;100.00
5952;BME280;3001;42.622;23.194;2023-08-17T04:22:23;91461.13;;;20.09;100.00
5952;BME280;3001;42.622;23.194;2023-08-17T04:24:50;91457.56;;;20.20;100.00
5952;BME280;3001;42.622;23.194;2023-08-17T04:27:17;91459.19;;;20.28;100.00
5952;BME280;3001;42.622;23.194;2023-08-17T04:29:43;91466.81;;;20.33;100.00
5952;BME280;3001;42.622;23.194;2023-08-17T04:32:14;91466.72;;;20.26;100.00
5952;BME280;3001;42.622;23.194;2023-08-17T04:34:41;91464.06;;;20.26;100.00
5952;BME280;3001;42.622;23.194;2023-08-17T04:37:08;91453.53;;;20.52;100.00
5952;BME280;3001;42.622;23.194;2023-08-17T04:39:35;91459.75;;;20.41;100.00
5952;BME280;3001;42.622;23.194;2023-08-17T04:42:02;91466.50;;;20.38;100.00
5952;BME280;3001;42.622;23.194;2023-08-17T04:44:29;91455.22;;;20.41;100.00
5952;BME280;3001;42.622;23.194;2023-08-17T04:46:56;91458.50;;;20.31;100.00
5952;BME280;3001;42.622;23.194;2023-08-17T04:49:24;91461.19;;;20.35;100.00
5952;BME280;3001;42.622;23.194;2023-08-17T04:51:51;91458.13;;;20.59;100.00
5952;BME280;3001;42.622;23.194;2023-08-17T04:54:18;91458.44;;;20.54;100.00
5952;BME280;3001;42.622;23.194;2023-08-17T04:56:44;91463.28;;;20.48;100.00
5952;BME280;3001;42.622;23.194;2023-08-17T04:59:11;91457.88;;;20.41;100.00
5952;BME280;3001;42.622;23.194;2023-08-17T05:01:38;91456.22;;;20.56;100.00
5952;BME280;3001;42.622;23.194;2023-08-17T05:04:05;91458.78;;;20.52;100.00
5952;BME280;3001;42.622;23.194;2023-08-17T05:06:34;91456.94;;;20.53;100.00
5952;BME280;3001;42.622;23.194;2023-08-17T05:09:02;91456.34;;;20.40;100.00
5952;BME280;3001;42.622;23.194;2023-08-17T05:11:29;91460.81;;;20.36;100.00
5952;BME280;3001;42.622;23.194;2023-08-17T05:13:56;91458.31;;;20.43;100.00
5952;BME280;3001;42.622;23.194;2023-08-17T05:16:22;91471.75;;;20.61;100.00
5952;BME280;3001;42.622;23.194;2023-08-17T05:18:49;91463.50;;;20.66;100.00
5952;BME280;3001;42.622;23.194;2023-08-17T05:21:16;91456.09;;;20.75;100.00
5952;BME280;3001;42.622;23.194;2023-08-17T05:23:44;91459.88;;;20.74;100.00
5952;BME280;3001;42.622;23.194;2023-08-17T05:26:11;91461.78;;;20.77;100.00
5952;BME280;3001;42.622;23.194;2023-08-17T05:28:37;91453.88;;;20.77;100.00
5952;BME280;3001;42.622;23.194;2023-08-17T05:31:05;91459.31;;;20.87;100.00
5952;BME280;3001;42.622;23.194;2023-08-17T05:33:32;91452.03;;;20.81;100.00
5952;BME280;3001;42.622;23.194;2023-08-17T05:35:59;91454.44;;;20.89;100.00
5952;BME280;3001;42.622;23.194;2023-08-17T05:38:25;91458.34;;;21.02;99.82
5952;BME280;3001;42.622;23.194;2023-08-17T05:40:55;91453.56;;;21.11;98.74
5952;BME280;3001;42.622;23.194;2023-08-17T05:43:22;91459.78;;;21.25;96.54
5952;BME280;3001;42.622;23.194;2023-08-17T05:45:49;91467.63;;;21.18;95.29
5952;BME280;3001;42.622;23.194;2023-08-17T05:48:18;91456.59;;;21.13;96.16
5952;BME280;3001;42.622;23.194;2023-08-17T05:50:45;91464.47;;;21.06;95.81
5952;BME280;3001;42.622;23.194;2023-08-17T05:53:12;91464.41;;;21.03;97.04
5952;BME280;3001;42.622;23.194;2023-08-17T05:55:39;91467.41;;;21.01;97.88
5952;BME280;3001;42.622;23.194;2023-08-17T05:58:07;91465.38;;;21.20;97.33
5952;BME280;3001;42.622;23.194;2023-08-17T06:00:33;91469.28;;;21.33;96.33
5952;BME280;3001;42.622;23.194;2023-08-17T06:03:00;91463.59;;;21.31;97.00
5952;BME280;3001;42.622;23.194;2023-08-17T06:05:27;91472.38;;;21.35;95.86
5952;BME280;3001;42.622;23.194;2023-08-17T06:07:55;91485.53;;;21.32;95.75
5952;BME280;3001;42.622;23.194;2023-08-17T06:10:22;91463.59;;;21.31;95.81
5952;BME280;3001;42.622;23.194;2023-08-17T06:12:50;91474.88;;;21.25;95.89
5952;BME280;3001;42.622;23.194;2023-08-17T06:15:18;91475.34;;;21.34;96.32
5952;BME280;3001;42.622;23.194;2023-08-17T06:17:45;91467.38;;;21.30;96.25
5952;BME280;3001;42.622;23.194;2023-08-17T06:20:12;91469.00;;;21.42;96.35
5952;BME280;3001;42.622;23.194;2023-08-17T06:22:39;91472.06;;;21.44;96.27
5952;BME280;3001;42.622;23.194;2023-08-17T06:25:07;91470.25;;;21.51;96.36
5952;BME280;3001;42.622;23.194;2023-08-17T06:27:34;91473.72;;;21.59;96.66
5952;BME280;3001;42.622;23.194;2023-08-17T06:30:01;91477.41;;;21.84;95.91
5952;BME280;3001;42.622;23.194;2023-08-17T06:32:31;91487.19;;;21.80;95.32
5952;BME280;3001;42.622;23.194;2023-08-17T06:34:57;91491.25;;;22.07;94.15
5952;BME280;3001;42.622;23.194;2023-08-17T06:37:24;91482.59;;;22.13;95.01
5952;BME280;3001;42.622;23.194;2023-08-17T06:39:51;91488.19;;;22.05;94.89
5952;BME280;3001;42.622;23.194;2023-08-17T06:42:17;91490.56;;;21.77;95.79
5952;BME280;3001;42.622;23.194;2023-08-17T06:44:44;91484.59;;;21.83;95.09
5952;BME280;3001;42.622;23.194;2023-08-17T06:47:11;91493.69;;;22.29;93.16
5952;BME280;3001;42.622;23.194;2023-08-17T06:49:39;91497.16;;;22.37;92.16
5952;BME280;3001;42.622;23.194;2023-08-17T06:52:05;91500.56;;;22.34;91.59
5952;BME280;3001;42.622;23.194;2023-08-17T06:54:32;91492.09;;;22.65;90.26
5952;BME280;3001;42.622;23.194;2023-08-17T06:56:59;91502.50;;;22.91;89.13
5952;BME280;3001;42.622;23.194;2023-08-17T06:59:25;91493.06;;;22.96;88.18
5952;BME280;3001;42.622;23.194;2023-08-17T07:01:52;91499.16;;;23.00;87.32
5952;BME280;3001;42.622;23.194;2023-08-17T07:04:19;91505.69;;;23.13;86.45
5952;BME280;3001;42.622;23.194;2023-08-17T07:06:47;91493.78;;;22.90;87.36
5952;BME280;3001;42.622;23.194;2023-08-17T07:09:14;91497.69;;;23.10;87.57
5952;BME280;3001;42.622;23.194;2023-08-17T07:11:41;91503.13;;;23.31;85.67
5952;BME280;3001;42.622;23.194;2023-08-17T07:14:07;91503.09;;;23.27;86.25
5952;BME280;3001;42.622;23.194;2023-08-17T07:16:34;91496.78;;;23.49;85.01
5952;BME280;3001;42.622;23.194;2023-08-17T07:19:02;91480.50;;;23.54;84.53
5952;BME280;3001;42.622;23.194;2023-08-17T07:21:29;91489.63;;;23.71;84.67
5952;BME280;3001;42.622;23.194;2023-08-17T07:23:57;91482.06;;;23.76;84.17
5952;BME280;3001;42.622;23.194;2023-08-17T07:26:24;91493.16;;;23.99;83.59
5952;BME280;3001;42.622;23.194;2023-08-17T07:28:50;91485.91;;;23.89;83.39
5952;BME280;3001;42.622;23.194;2023-08-17T07:31:17;91486.31;;;23.98;82.46
5952;BME280;3001;42.622;23.194;2023-08-17T07:33:44;91489.41;;;24.35;82.86
5952;BME280;3001;42.622;23.194;2023-08-17T07:36:10;91485.59;;;24.29;82.46
5952;BME280;3001;42.622;23.194;2023-08-17T07:38:37;91493.19;;;24.34;81.89
5952;BME280;3001;42.622;23.194;2023-08-17T07:41:05;91494.31;;;24.47;81.78
5952;BME280;3001;42.622;23.194;2023-08-17T07:43:31;91490.19;;;24.60;80.32
5952;BME280;3001;42.622;23.194;2023-08-17T07:45:58;91491.34;;;24.73;79.48
5952;BME280;3001;42.622;23.194;2023-08-17T07:48:25;91487.50;;;24.77;78.97
5952;BME280;3001;42.622;23.194;2023-08-17T07:50:52;91484.88;;;24.74;78.11
5952;BME280;3001;42.622;23.194;2023-08-17T07:53:19;91492.00;;;25.12;75.03
5952;BME280;3001;42.622;23.194;2023-08-17T07:55:46;91489.38;;;25.19;74.73
5952;BME280;3001;42.622;23.194;2023-08-17T07:58:14;91490.47;;;25.32;73.50
5952;BME280;3001;42.622;23.194;2023-08-17T08:00:40;91482.47;;;25.39;71.68
5952;BME280;3001;42.622;23.194;2023-08-17T08:03:07;91483.53;;;25.55;72.63
5952;BME280;3001;42.622;23.194;2023-08-17T08:05:33;91478.91;;;25.70;72.48
5952;BME280;3001;42.622;23.194;2023-08-17T08:08:00;91481.91;;;25.86;69.93
5952;BME280;3001;42.622;23.194;2023-08-17T08:10:27;91478.75;;;26.05;69.71
5952;BME280;3001;42.622;23.194;2023-08-17T08:12:54;91478.69;;;26.15;68.33
5952;BME280;3001;42.622;23.194;2023-08-17T08:15:22;91482.81;;;26.27;67.10
5952;BME280;3001;42.622;23.194;2023-08-17T08:17:49;91483.88;;;26.40;65.65
5952;BME280;3001;42.622;23.194;2023-08-17T08:20:16;91476.53;;;26.54;65.96
5952;BME280;3001;42.622;23.194;2023-08-17T08:22:42;91478.47;;;26.47;66.96
5952;BME280;3001;42.622;23.194;2023-08-17T08:25:09;91484.47;;;26.61;65.54
5952;BME280;3001;42.622;23.194;2023-08-17T08:27:36;91474.69;;;26.91;64.44
5952;BME280;3001;42.622;23.194;2023-08-17T08:30:03;91479.88;;;27.09;65.43
5952;BME280;3001;42.622;23.194;2023-08-17T08:32:32;91477.13;;;27.19;64.42
5952;BME280;3001;42.622;23.194;2023-08-17T08:34:58;91472.03;;;27.32;63.22
5952;BME280;3001;42.622;23.194;2023-08-17T08:37:25;91484.31;;;27.59;63.96
5952;BME280;3001;42.622;23.194;2023-08-17T08:39:53;91476.56;;;27.68;63.68
5952;BME280;3001;42.622;23.194;2023-08-17T08:42:20;91476.38;;;27.86;63.24
5952;BME280;3001;42.622;23.194;2023-08-17T08:44:48;91460.13;;;27.73;62.21
5952;BME280;3001;42.622;23.194;2023-08-17T08:47:16;91469.81;;;28.20;62.13
5952;BME280;3001;42.622;23.194;2023-08-17T08:49:50;91483.81;;;28.54;61.16
5952;BME280;3001;42.622;23.194;2023-08-17T08:52:22;91482.56;;;28.62;60.14
5952;BME280;3001;42.622;23.194;2023-08-17T08:54:50;91476.28;;;28.72;60.53
5952;BME280;3001;42.622;23.194;2023-08-17T08:57:18;91478.75;;;28.86;59.37
5952;BME280;3001;42.622;23.194;2023-08-17T08:59:45;91471.94;;;29.04;58.85
5952;BME280;3001;42.622;23.194;2023-08-17T09:02:14;91479.63;;;29.02;58.58
5952;BME280;3001;42.622;23.194;2023-08-17T09:04:42;91474.19;;;29.29;58.52
5952;BME280;3001;42.622;23.194;2023-08-17T09:07:11;91443.53;;;29.33;58.06
5952;BME280;3001;42.622;23.194;2023-08-17T09:09:39;91468.81;;;29.52;57.72
5952;BME280;3001;42.622;23.194;2023-08-17T09:12:07;91465.66;;;29.76;57.65
5952;BME280;3001;42.622;23.194;2023-08-17T09:14:34;91465.91;;;29.82;56.95
5952;BME280;3001;42.622;23.194;2023-08-17T09:17:00;91467.47;;;29.99;55.42
5952;BME280;3001;42.622;23.194;2023-08-17T09:19:27;91458.47;;;29.89;55.17
5952;BME280;3001;42.622;23.194;2023-08-17T09:21:54;91454.72;;;30.06;57.62
5952;BME280;3001;42.622;23.194;2023-08-17T09:24:22;91460.03;;;30.26;56.75
5952;BME280;3001;42.622;23.194;2023-08-17T09:26:49;91455.19;;;30.37;55.46
5952;BME280;3001;42.622;23.194;2023-08-17T09:29:16;91461.78;;;30.32;56.09
5952;BME280;3001;42.622;23.194;2023-08-17T09:31:43;91458.28;;;30.51;52.63
5952;BME280;3001;42.622;23.194;2023-08-17T09:34:10;91467.00;;;30.39;53.90
5952;BME280;3001;42.622;23.194;2023-08-17T09:36:37;91454.59;;;30.45;55.02
5952;BME280;3001;42.622;23.194;2023-08-17T09:39:06;91462.13;;;30.69;52.52
5952;BME280;3001;42.622;23.194;2023-08-17T09:41:41;91447.78;;;30.76;53.78
5952;BME280;3001;42.622;23.194;2023-08-17T09:44:08;91454.31;;;30.75;54.57
5952;BME280;3001;42.622;23.194;2023-08-17T09:46:35;91448.09;;;30.94;53.46
5952;BME280;3001;42.622;23.194;2023-08-17T09:49:02;91448.00;;;31.13;51.97
5952;BME280;3001;42.622;23.194;2023-08-17T09:51:31;91453.53;;;31.06;50.96
5952;BME280;3001;42.622;23.194;2023-08-17T09:53:57;91432.06;;;31.06;50.22
5952;BME280;3001;42.622;23.194;2023-08-17T09:56:24;91451.88;;;31.12;51.21
5952;BME280;3001;42.622;23.194;2023-08-17T09:58:54;91450.50;;;31.20;47.81
5952;BME280;3001;42.622;23.194;2023-08-17T10:01:21;91449.22;;;31.41;48.38
5952;BME280;3001;42.622;23.194;2023-08-17T10:03:51;91434.53;;;31.45;48.92
5952;BME280;3001;42.622;23.194;2023-08-17T10:06:22;91441.31;;;31.91;45.61
5952;BME280;3001;42.622;23.194;2023-08-17T10:08:53;91441.53;;;31.84;46.05
5952;BME280;3001;42.622;23.194;2023-08-17T10:11:22;91451.44;;;31.99;45.83
5952;BME280;3001;42.622;23.194;2023-08-17T10:13:52;91438.31;;;32.01;45.86
5952;BME280;3001;42.622;23.194;2023-08-17T10:16:23;91426.66;;;32.20;44.07
5952;BME280;3001;42.622;23.194;2023-08-17T10:18:53;91425.91;;;32.20;45.18
5952;BME280;3001;42.622;23.194;2023-08-17T10:21:23;91444.59;;;32.23;42.72
5952;BME280;3001;42.622;23.194;2023-08-17T10:23:54;91448.91;;;32.21;43.23
5952;BME280;3001;42.622;23.194;2023-08-17T10:26:22;91438.81;;;32.25;42.55
5952;BME280;3001;42.622;23.194;2023-08-17T10:28:50;91443.88;;;32.35;42.03
5952;BME280;3001;42.622;23.194;2023-08-17T10:31:17;91443.97;;;32.44;43.09
5952;BME280;3001;42.622;23.194;2023-08-17T10:33:47;91429.13;;;32.40;41.86
5952;BME280;3001;42.622;23.194;2023-08-17T10:36:14;91439.09;;;32.64;41.01
5952;BME280;3001;42.622;23.194;2023-08-17T10:38:41;91442.25;;;32.75;42.91
5952;BME280;3001;42.622;23.194;2023-08-17T10:41:09;91426.22;;;32.59;43.10
5952;BME280;3001;42.622;23.194;2023-08-17T10:43:54;91438.47;;;32.60;42.76
5952;BME280;3001;42.622;23.194;2023-08-17T10:46:21;91428.34;;;32.89;41.11
5952;BME280;3001;42.622;23.194;2023-08-17T10:49:03;91428.00;;;32.87;41.82
5952;BME280;3001;42.622;23.194;2023-08-17T10:51:31;91430.81;;;32.96;39.70
5952;BME280;3001;42.622;23.194;2023-08-17T10:53:58;91437.97;;;33.24;38.55
5952;BME280;3001;42.622;23.194;2023-08-17T10:56:27;91415.44;;;33.30;40.59
5952;BME280;3001;42.622;23.194;2023-08-17T10:58:59;91415.44;;;33.30;41.27
5952;BME280;3001;42.622;23.194;2023-08-17T11:01:33;91429.66;;;33.31;41.13
5952;BME280;3001;42.622;23.194;2023-08-17T11:04:12;91424.22;;;33.43;41.32
5952;BME280;3001;42.622;23.194;2023-08-17T11:06:42;91429.41;;;33.38;40.43
5952;BME280;3001;42.622;23.194;2023-08-17T11:09:08;91421.41;;;33.13;38.43
5952;BME280;3001;42.622;23.194;2023-08-17T11:11:35;91415.50;;;33.61;39.77
5952;BME280;3001;42.622;23.194;2023-08-17T11:14:02;91414.91;;;33.23;40.32
5952;BME280;3001;42.622;23.194;2023-08-17T11:16:29;91414.50;;;33.46;39.57
5952;BME280;3001;42.622;23.194;2023-08-17T11:18:56;91403.19;;;33.51;38.66
5952;BME280;3001;42.622;23.194;2023-08-17T11:21:26;91410.81;;;33.52;39.51
5952;BME280;3001;42.622;23.194;2023-08-17T11:23:55;91419.00;;;33.49;39.30
5952;BME280;3001;42.622;23.194;2023-08-17T11:26:23;91408.94;;;33.40;39.31
5952;BME280;3001;42.622;23.194;2023-08-17T11:28:50;91406.78;;;33.35;40.55
5952;BME280;3001;42.622;23.194;2023-08-17T11:31:16;91397.97;;;33.35;36.99
5952;BME280;3001;42.622;23.194;2023-08-17T11:33:43;91409.88;;;33.46;37.73
5952;BME280;3001;42.622;23.194;2023-08-17T11:36:12;91417.31;;;33.64;38.61
5952;BME280;3001;42.622;23.194;2023-08-17T11:38:42;91392.63;;;33.65;39.03
5952;BME280;3001;42.622;23.194;2023-08-17T11:41:09;91397.34;;;33.52;40.03
5952;BME280;3001;42.622;23.194;2023-08-17T11:43:37;91413.38;;;33.56;39.12
5952;BME280;3001;42.622;23.194;2023-08-17T11:46:04;91415.19;;;33.59;40.42
5952;BME280;3001;42.622;23.194;2023-08-17T11:48:31;91411.81;;;33.67;39.38
5952;BME280;3001;42.622;23.194;2023-08-17T11:50:58;91404.56;;;33.77;40.62
5952;BME280;3001;42.622;23.194;2023-08-17T11:53:32;91390.84;;;33.62;39.68
5952;BME280;3001;42.622;23.194;2023-08-17T11:56:01;91402.19;;;33.79;39.36
5952;BME280;3001;42.622;23.194;2023-08-17T11:58:40;91406.66;;;33.73;39.49
5952;BME280;3001;42.622;23.194;2023-08-17T12:01:09;91412.31;;;33.96;40.11
5952;BME280;3001;42.622;23.194;2023-08-17T12:03:36;91406.59;;;33.94;39.90
5952;BME280;3001;42.622;23.194;2023-08-17T12:06:04;91412.50;;;34.02;39.08
5952;BME280;3001;42.622;23.194;2023-08-17T12:08:31;91403.28;;;34.42;38.38
5952;BME280;3001;42.622;23.194;2023-08-17T12:10:58;91398.00;;;34.38;37.74
5952;BME280;3001;42.622;23.194;2023-08-17T12:13:31;91396.81;;;34.39;37.51
5952;BME280;3001;42.622;23.194;2023-08-17T12:15:58;91399.03;;;34.71;37.02
5952;BME280;3001;42.622;23.194;2023-08-17T12:18:25;91406.69;;;34.34;38.45
5952;BME280;3001;42.622;23.194;2023-08-17T12:20:52;91399.19;;;34.77;37.26
5952;BME280;3001;42.622;23.194;2023-08-17T12:23:19;91400.44;;;34.45;39.81
5952;BME280;3001;42.622;23.194;2023-08-17T12:25:46;91385.56;;;34.80;38.57
5952;BME280;3001;42.622;23.194;2023-08-17T12:28:18;91394.81;;;34.70;38.91
5952;BME280;3001;42.622;23.194;2023-08-17T12:30:46;91407.56;;;35.18;38.29
5952;BME280;3001;42.622;23.194;2023-08-17T12:33:13;91413.47;;;34.86;39.26
5952;BME280;3001;42.622;23.194;2023-08-17T12:35:39;91386.47;;;34.77;39.76
5952;BME280;3001;42.622;23.194;2023-08-17T12:38:06;91395.50;;;35.01;39.76
5952;BME280;3001;42.622;23.194;2023-08-17T12:40:33;91394.22;;;34.66;39.79
5952;BME280;3001;42.622;23.194;2023-08-17T12:43:00;91405.63;;;34.70;40.02
5952;BME280;3001;42.622;23.194;2023-08-17T12:45:26;91401.00;;;34.71;40.18
5952;BME280;3001;42.622;23.194;2023-08-17T12:47:56;91407.47;;;34.73;40.25
5952;BME280;3001;42.622;23.194;2023-08-17T12:50:23;91394.66;;;34.65;40.09
5952;BME280;3001;42.622;23.194;2023-08-17T12:52:49;91403.94;;;34.64;39.45
5952;BME280;3001;42.622;23.194;2023-08-17T12:55:16;91396.28;;;34.53;41.55
5952;BME280;3001;42.622;23.194;2023-08-17T12:57:43;91401.00;;;34.71;40.40
5952;BME280;3001;42.622;23.194;2023-08-17T13:00:10;91406.56;;;34.76;39.78
5952;BME280;3001;42.622;23.194;2023-08-17T13:02:37;91403.72;;;34.89;40.02
5952;BME280;3001;42.622;23.194;2023-08-17T13:05:05;91401.53;;;35.23;39.45
5952;BME280;3001;42.622;23.194;2023-08-17T13:07:32;91405.53;;;34.83;39.90
5952;BME280;3001;42.622;23.194;2023-08-17T13:09:59;91397.22;;;34.68;40.96